METAR AND TAF INFORMATION
METAR FOR RJSI
ADDS - METARS form results

(0610 UTC 24 October 2018)
Data provider http://aviationweather.gov/metar/data/
 
METAR text: RJSI 240600Z 19004KT 160V220 9999 FEW030 SCT040 BKN070 18/15 Q1014
Conditions at: RJSI (HANAMAKI AIRPORT, JP) observed 0600 UTC 24 October 2018
Temperature: 18.0°C (64°F)
Dewpoint: 15.0°C (59°F) [RH = 83%]
Pressure (altimeter): 29.94 inches Hg (1014.0 mb)
Winds: from the S (190 degrees) at 5 MPH (4 knots; 2.1 m/s)
Visibility: 6 or more miles (10+ km)
Ceiling: 7000 feet AGL
Clouds: few clouds at 3000 feet AGL
scattered clouds at 4000 feet AGL
broken clouds at 7000 feet AGL
Weather: no significant weather observed at this time

 AIRPORT MAP

 RUNWAY INFORMATION
Runway 02 Runway length 8202 ft Runway width 148 ft
Runway elevation 283 ft Runway displaced threshold 0 ft Runway heading 11
Runway 20 Runway length 8202 ft Runway width 148 ft
Runway elevation 298 ft Runway displaced threshold 0 ft Runway heading 191

 AIRPORT FREQUENCIES
Type ACC Name SAPPORO CO Frequency 124.5 MHZ
Type RDO Name RDO Frequency 118.2 MHZ

 AIRPORT NEAR NAVIGATION AIDS
Type VOR-DME Name Hanamaki Frequency 112800 KHZ



Powered by Virtual Airlines Manager [v2.6.2]